Time;durP1;ratioP1;P1;durP2;ratioP2;P2;SDS_P1;SDS_P2;PMS_P1;PMS_P2;Temp;Humidity;BMP_temperature;BMP_pressure;BME280_temperature;BME280_humidity;BME280_pressure;Samples;Min_cycle;Max_cycle;Signal;HPM_P1;HPM_P2
2021/03/03 00:01:58;;;;;;;31.08;16.13;;;6.90;98.60;;;;;;5049151;28;20090;-75
2021/03/03 00:04:27;;;;;;;31.45;15.40;;;7.90;99.00;;;;;;5046685;28;20020;-76
2021/03/03 00:06:53;;;;;;;25.33;14.52;;;6.80;98.70;;;;;;5023579;28;20078;-76
2021/03/03 00:09:19;;;;;;;29.45;15.07;;;6.80;98.70;;;;;;5039403;28;20124;-77
2021/03/03 00:11:45;;;;;;;28.98;16.05;;;6.80;98.60;;;;;;5042112;28;20119;-77
2021/03/03 00:14:11;;;;;;;30.42;14.63;;;6.80;99.00;;;;;;5037528;28;20120;-77
2021/03/03 00:16:36;;;;;;;29.33;14.15;;;6.90;99.00;;;;;;5032926;28;20041;-75
2021/03/03 00:19:03;;;;;;;29.30;15.93;;;6.70;98.70;;;;;;5034810;28;20044;-76
2021/03/03 00:21:28;;;;;;;29.95;15.18;;;6.70;98.80;;;;;;5041731;28;20028;-77
2021/03/03 00:23:54;;;;;;;28.15;14.07;;;;;;;;;;5037703;28;20041;-75
2021/03/03 00:26:20;;;;;;;25.60;13.88;;;6.70;98.90;;;;;;5039751;28;20072;-76
2021/03/03 00:28:46;;;;;;;27.67;14.43;;;6.70;99.20;;;;;;5040319;28;20094;-77
2021/03/03 00:31:12;;;;;;;32.33;13.90;;;6.70;99.00;;;;;;5042863;28;20086;-76
2021/03/03 00:33:38;;;;;;;31.60;14.93;;;;;;;;;;5038740;28;20048;-76
2021/03/03 00:36:05;;;;;;;30.02;13.63;;;6.70;99.00;;;;;;5040861;28;20454;-76
2021/03/03 00:38:30;;;;;;;30.23;14.32;;;6.60;99.40;;;;;;5038767;28;20064;-76
2021/03/03 00:40:56;;;;;;;25.60;14.15;;;6.60;99.20;;;;;;5036654;28;21330;-76
2021/03/03 00:43:22;;;;;;;25.73;13.35;;;6.60;99.50;;;;;;5038462;28;20032;-75
2021/03/03 00:45:47;;;;;;;28.58;14.27;;;6.60;99.50;;;;;;5035391;28;20041;-75
2021/03/03 00:48:13;;;;;;;25.45;13.75;;;6.50;99.50;;;;;;5036708;28;20311;-78
2021/03/03 00:50:39;;;;;;;27.30;15.20;;;6.50;99.50;;;;;;5017446;28;20041;-78
2021/03/03 00:53:11;;;;;;;29.98;16.05;;;6.50;99.30;;;;;;5035265;28;20482;-76
2021/03/03 00:55:37;;;;;;;27.25;16.08;;;6.40;99.30;;;;;;5037312;28;20033;-76
2021/03/03 00:58:02;;;;;;;32.08;15.07;;;6.40;99.30;;;;;;5037058;28;20048;-76
2021/03/03 01:00:28;;;;;;;32.47;17.08;;;6.40;99.40;;;;;;5039455;28;20025;-76
2021/03/03 01:02:54;;;;;;;27.02;15.70;;;6.40;99.60;;;;;;5040021;28;20081;-75
2021/03/03 01:05:20;;;;;;;28.77;16.27;;;6.40;99.40;;;;;;5010716;28;20111;-75
2021/03/03 01:07:45;;;;;;;30.67;15.80;;;6.40;99.60;;;;;;5032760;28;20038;-75
2021/03/03 01:10:11;;;;;;;29.08;15.43;;;6.40;99.50;;;;;;5018259;28;20493;-75
2021/03/03 01:12:37;;;;;;;26.55;14.80;;;6.40;99.60;;;;;;5033077;28;20053;-75
2021/03/03 01:15:04;;;;;;;24.58;14.40;;;6.50;99.50;;;;;;5034202;28;20045;-76
2021/03/03 01:17:30;;;;;;;23.85;13.57;;;6.40;99.60;;;;;;5037880;28;20444;-75
2021/03/03 01:19:55;;;;;;;27.77;14.43;;;6.40;99.70;;;;;;5035450;28;20049;-76
2021/03/03 01:22:21;;;;;;;28.55;14.82;;;6.40;99.90;;;;;;5033960;28;20402;-76
2021/03/03 01:24:46;;;;;;;27.80;15.57;;;6.40;99.70;;;;;;5019704;28;20077;-75
2021/03/03 01:27:12;;;;;;;33.20;16.30;;;6.30;99.70;;;;;;5040452;28;20099;-77
2021/03/03 01:29:38;;;;;;;30.20;16.45;;;6.30;99.90;;;;;;5037647;28;20041;-75
2021/03/03 01:32:04;;;;;;;29.13;17.15;;;6.30;99.70;;;;;;5032453;28;20663;-76
2021/03/03 01:34:32;;;;;;;31.17;17.08;;;6.30;99.70;;;;;;5035035;28;20495;-77
2021/03/03 01:36:58;;;;;;;33.75;17.40;;;6.10;99.90;;;;;;5038665;28;20076;-77
2021/03/03 01:39:24;;;;;;;31.27;16.98;;;6.20;99.90;;;;;;5023708;28;20443;-77
2021/03/03 01:41:49;;;;;;;33.80;18.40;;;6.20;99.80;;;;;;5039438;28;20033;-76
2021/03/03 01:44:15;;;;;;;32.85;19.00;;;6.20;99.90;;;;;;5040669;28;20061;-77
2021/03/03 01:46:41;;;;;;;36.95;18.85;;;6.20;99.90;;;;;;5042449;28;20103;-75
2021/03/03 01:49:06;;;;;;;34.13;19.10;;;6.10;99.70;;;;;;5032908;28;20037;-76
2021/03/03 01:51:33;;;;;;;30.77;18.73;;;6.10;99.90;;;;;;5036074;28;20407;-77
2021/03/03 01:53:59;;;;;;;33.20;18.17;;;6.10;99.80;;;;;;5046842;28;20485;-77
2021/03/03 01:56:25;;;;;;;35.13;18.85;;;6.00;99.90;;;;;;5044586;28;20044;-76
2021/03/03 01:58:51;;;;;;;30.83;17.58;;;6.00;99.90;;;;;;5031190;28;20040;-76
2021/03/03 02:01:16;;;;;;;32.83;17.40;;;6.00;99.90;;;;;;5039541;28;20529;-75
2021/03/03 02:03:42;;;;;;;32.38;18.35;;;5.90;99.90;;;;;;5044541;28;20037;-77
2021/03/03 02:06:41;;;;;;;32.47;17.75;;;5.90;99.90;;;;;;5040860;28;20488;-76
2021/03/03 02:09:11;;;;;;;33.92;18.63;;;5.90;99.90;;;;;;5024612;28;20079;-74
2021/03/03 02:11:45;;;;;;;32.17;18.17;;;5.90;99.90;;;;;;5041153;28;20032;-75
2021/03/03 02:14:21;;;;;;;41.33;20.63;;;5.90;99.90;;;;;;5037406;28;20048;-76
2021/03/03 02:16:49;;;;;;;31.55;19.50;;;5.90;99.90;;;;;;5039464;28;20081;-76
2021/03/03 02:19:21;;;;;;;36.15;19.52;;;5.90;99.90;;;;;;5044086;28;20068;-76
2021/03/03 02:22:08;;;;;;;30.02;18.33;;;5.90;99.90;;;;;;5043616;28;20490;-78
2021/03/03 02:24:42;;;;;;;31.23;17.75;;;5.90;99.90;;;;;;5044127;28;20111;-77
2021/03/03 02:27:10;;;;;;;27.70;16.23;;;5.90;99.90;;;;;;5041601;28;20078;-74
2021/03/03 02:29:36;;;;;;;27.27;16.60;;;5.90;99.90;;;;;;5043696;28;20039;-76
2021/03/03 02:32:02;;;;;;;30.05;15.98;;;5.90;99.90;;;;;;5049532;28;20048;-76
2021/03/03 02:34:29;;;;;;;28.02;14.73;;;5.90;99.90;;;;;;5042272;28;20052;-75
2021/03/03 02:36:56;;;;;;;32.50;18.17;;;5.80;99.90;;;;;;5038067;28;20544;-76
2021/03/03 02:39:25;;;;;;;32.45;17.60;;;5.90;99.90;;;;;;5040155;28;20399;-77
2021/03/03 02:41:51;;;;;;;32.85;19.02;;;5.80;99.90;;;;;;5040379;28;20044;-76
2021/03/03 02:44:17;;;;;;;32.30;19.63;;;5.80;99.90;;;;;;5039339;28;20049;-76
2021/03/03 02:46:44;;;;;;;34.13;18.92;;;5.70;99.90;;;;;;5045923;28;20077;-75
2021/03/03 02:49:10;;;;;;;32.22;18.73;;;5.80;99.90;;;;;;5044101;28;20051;-76
2021/03/03 02:51:36;;;;;;;32.47;18.75;;;5.70;99.90;;;;;;5044946;28;20041;-76
2021/03/03 02:54:02;;;;;;;35.42;20.15;;;5.60;99.90;;;;;;5047024;28;20029;-77
2021/03/03 02:56:30;;;;;;;33.53;19.42;;;5.70;99.90;;;;;;5047617;28;20041;-75
2021/03/03 02:59:01;;;;;;;38.15;20.42;;;5.60;99.90;;;;;;5040032;28;20037;-77
2021/03/03 03:01:27;;;;;;;;;;;5.50;99.90;;;;;;5047270;28;20094;-78
2021/03/03 03:03:59;;;;;;;31.85;16.40;;;5.50;99.90;;;;;;5039402;28;19920;-77
2021/03/03 03:06:38;;;;;;;35.05;17.83;;;5.60;99.90;;;;;;5044628;28;20029;-76
2021/03/03 03:09:07;;;;;;;33.95;18.73;;;5.60;99.90;;;;;;5045658;28;20037;-76
2021/03/03 03:11:34;;;;;;;33.30;17.67;;;5.60;99.90;;;;;;5036961;28;20036;-76
2021/03/03 03:14:06;;;;;;;30.98;19.02;;;5.70;99.90;;;;;;5027364;28;20068;-75
2021/03/03 03:16:34;;;;;;;30.77;18.27;;;5.70;99.90;;;;;;5040520;28;20142;-76
2021/03/03 03:19:05;;;;;;;32.00;18.40;;;5.70;99.90;;;;;;5044078;28;20041;-75
2021/03/03 03:21:32;;;;;;;32.38;19.08;;;5.70;99.90;;;;;;5041489;28;20087;-77
2021/03/03 03:24:00;;;;;;;34.50;18.55;;;5.60;99.90;;;;;;5045151;28;20029;-75
2021/03/03 03:26:27;;;;;;;36.65;17.90;;;5.60;99.90;;;;;;5038978;28;20037;-75
2021/03/03 03:28:53;;;;;;;33.90;17.73;;;5.60;99.90;;;;;;5041104;28;20683;-75
2021/03/03 03:31:20;;;;;;;31.10;16.77;;;5.50;99.90;;;;;;5043201;28;20025;-76
2021/03/03 03:33:49;;;;;;;28.98;16.60;;;5.50;99.90;;;;;;5040507;28;20051;-76
2021/03/03 03:36:14;;;;;;;33.42;18.13;;;5.50;99.90;;;;;;5040821;28;20489;-76
2021/03/03 03:38:41;;;;;;;29.95;16.65;;;5.40;99.90;;;;;;5038508;28;20118;-75
2021/03/03 03:41:07;;;;;;;29.50;17.45;;;5.40;99.90;;;;;;5046415;28;20102;-76
2021/03/03 03:43:35;;;;;;;29.83;17.05;;;5.40;99.90;;;;;;5041869;28;20047;-77
2021/03/03 03:46:02;;;;;;;31.85;17.67;;;5.40;99.90;;;;;;5043897;28;20033;-76
2021/03/03 03:48:30;;;;;;;28.45;17.25;;;5.30;99.90;;;;;;5044065;28;20040;-77
2021/03/03 03:50:55;;;;;;;32.15;16.38;;;5.20;99.90;;;;;;5038384;28;20025;-75
2021/03/03 03:53:22;;;;;;;30.83;17.52;;;5.30;99.90;;;;;;5044058;28;20120;-76
2021/03/03 03:55:48;;;;;;;31.83;16.95;;;5.30;99.90;;;;;;5034563;28;21107;-75
2021/03/03 03:58:13;;;;;;;32.78;18.35;;;5.30;99.90;;;;;;5023802;28;20132;-76
2021/03/03 04:00:39;;;;;;;33.50;17.65;;;5.40;99.90;;;;;;5040954;28;20399;-75
2021/03/03 04:03:05;;;;;;;34.63;19.50;;;5.40;99.90;;;;;;5042149;28;20025;-76
2021/03/03 04:05:31;;;;;;;32.70;17.73;;;5.40;99.90;;;;;;5023445;28;20060;-77
2021/03/03 04:07:57;;;;;;;33.35;18.08;;;5.40;99.90;;;;;;5049860;28;20136;-76
2021/03/03 04:10:25;;;;;;;33.28;18.75;;;5.50;99.90;;;;;;5044618;28;20052;-76
2021/03/03 04:12:51;;;;;;;34.10;18.70;;;5.50;99.90;;;;;;5041863;28;20036;-75
2021/03/03 04:15:17;;;;;;;33.05;17.35;;;5.50;99.90;;;;;;5048630;28;20116;-75
2021/03/03 04:17:43;;;;;;;32.58;18.05;;;5.50;99.90;;;;;;5038029;28;20052;-76
2021/03/03 04:20:10;;;;;;;31.35;17.85;;;5.50;99.90;;;;;;5042820;28;20053;-77
2021/03/03 04:22:37;;;;;;;29.90;17.98;;;5.50;99.90;;;;;;5042166;28;20112;-76
2021/03/03 04:25:04;;;;;;;38.38;20.30;;;4.60;99.90;;;;;;5046362;28;20025;-75
2021/03/03 04:27:30;;;;;;;38.40;18.10;;;5.50;99.90;;;;;;5040983;28;20045;-78
2021/03/03 04:29:56;;;;;;;32.10;18.42;;;5.50;99.90;;;;;;5019123;28;20049;-75
2021/03/03 04:32:23;;;;;;;35.95;18.65;;;5.50;99.90;;;;;;5033184;28;20037;-78
2021/03/03 04:34:49;;;;;;;32.17;18.63;;;5.40;99.90;;;;;;5044578;28;20056;-76
2021/03/03 04:37:16;;;;;;;35.17;19.45;;;5.40;99.90;;;;;;5039774;28;20049;-76
2021/03/03 04:39:42;;;;;;;34.75;20.08;;;5.40;99.90;;;;;;5039901;28;20534;-75
2021/03/03 04:42:07;;;;;;;34.47;20.15;;;5.40;99.90;;;;;;5047251;28;20067;-76
2021/03/03 04:44:33;;;;;;;35.03;19.75;;;5.30;99.90;;;;;;5020818;28;20573;-76
2021/03/03 04:46:59;;;;;;;35.35;19.38;;;5.40;99.90;;;;;;5044387;28;20025;-77
2021/03/03 04:49:27;;;;;;;35.20;20.20;;;5.30;99.90;;;;;;5042252;28;20970;-76
2021/03/03 04:51:54;;;;;;;37.17;19.33;;;5.40;99.90;;;;;;5043391;28;20120;-76
2021/03/03 04:54:19;;;;;;;36.20;19.05;;;5.40;99.90;;;;;;5025337;28;20477;-76
2021/03/03 04:56:45;;;;;;;34.38;18.98;;;5.40;99.90;;;;;;5036974;28;20054;-76
2021/03/03 04:59:10;;;;;;;33.10;18.70;;;5.40;99.90;;;;;;5042377;28;20043;-76
2021/03/03 05:01:36;;;;;;;39.95;19.38;;;5.40;99.90;;;;;;5031895;28;20072;-76
2021/03/03 05:04:02;;;;;;;36.28;18.40;;;5.30;99.90;;;;;;5034013;28;20127;-78
2021/03/03 05:06:27;;;;;;;33.30;17.85;;;5.30;99.90;;;;;;5034511;28;20049;-77
2021/03/03 05:08:55;;;;;;;31.38;17.75;;;5.30;99.90;;;;;;5033893;28;20138;-77
2021/03/03 05:11:24;;;;;;;30.92;17.42;;;5.20;99.90;;;;;;5028569;28;20114;-76
2021/03/03 05:13:49;;;;;;;31.60;17.77;;;5.20;99.90;;;;;;5039094;28;20047;-77
2021/03/03 05:16:15;;;;;;;36.15;18.50;;;5.20;99.90;;;;;;5037199;28;20042;-78
2021/03/03 05:18:41;;;;;;;33.97;19.75;;;5.20;99.90;;;;;;5037729;28;20469;-77
2021/03/03 05:21:07;;;;;;;37.22;19.83;;;5.10;99.90;;;;;;5030789;28;20032;-76
2021/03/03 05:23:34;;;;;;;33.45;17.60;;;5.10;99.90;;;;;;5015876;28;20046;-77
2021/03/03 05:26:04;;;;;;;36.63;18.08;;;5.10;99.90;;;;;;5015729;28;20073;-77
2021/03/03 05:28:31;;;;;;;31.63;17.80;;;5.20;99.90;;;;;;5016165;28;20053;-77
2021/03/03 05:30:56;;;;;;;40.20;20.13;;;5.10;99.90;;;;;;5039894;28;20071;-77
2021/03/03 05:33:25;;;;;;;35.67;19.48;;;5.10;99.90;;;;;;5031866;28;20132;-78
2021/03/03 05:35:51;;;;;;;35.75;19.33;;;5.10;99.90;;;;;;5037021;28;20029;-76
2021/03/03 05:38:17;;;;;;;35.10;19.23;;;5.20;99.90;;;;;;5038791;28;20078;-77
2021/03/03 05:40:45;;;;;;;34.97;19.17;;;5.30;99.90;;;;;;5033791;28;20445;-77
2021/03/03 05:43:11;;;;;;;32.40;18.15;;;5.20;99.90;;;;;;5035915;28;20124;-77
2021/03/03 05:45:41;;;;;;;36.33;18.55;;;5.30;99.90;;;;;;5027655;28;20565;-76
2021/03/03 05:48:10;;;;;;;34.28;19.42;;;5.30;99.90;;;;;;5038834;28;20037;-78
2021/03/03 05:50:36;;;;;;;34.20;18.88;;;5.30;99.90;;;;;;5035000;28;20045;-76
2021/03/03 05:53:02;;;;;;;36.03;18.63;;;5.30;99.90;;;;;;5031287;28;20047;-77
2021/03/03 05:55:28;;;;;;;35.95;18.38;;;5.20;99.90;;;;;;5028796;28;20426;-77
2021/03/03 05:57:54;;;;;;;34.47;19.52;;;5.20;99.90;;;;;;5035208;28;20041;-76
2021/03/03 06:00:20;;;;;;;38.78;20.38;;;5.20;99.90;;;;;;4997362;28;20126;-77
2021/03/03 06:02:46;;;;;;;32.65;18.35;;;5.10;99.90;;;;;;5034110;28;20116;-76
2021/03/03 06:05:12;;;;;;;34.72;19.10;;;5.20;99.90;;;;;;5036095;28;20033;-77
2021/03/03 06:07:39;;;;;;;35.78;19.33;;;5.10;99.90;;;;;;5036523;28;20045;-77
2021/03/03 06:10:06;;;;;;;34.10;18.60;;;5.20;99.90;;;;;;5040239;28;20127;-81
2021/03/03 06:12:31;;;;;;;36.10;20.00;;;5.20;99.90;;;;;;5034467;28;20037;-77
2021/03/03 06:14:58;;;;;;;35.58;21.02;;;5.20;99.90;;;;;;5038245;28;20037;-77
2021/03/03 06:17:24;;;;;;;37.45;20.50;;;5.20;99.90;;;;;;5031261;28;20049;-79
2021/03/03 06:19:50;;;;;;;38.13;20.85;;;5.20;99.90;;;;;;5041796;28;20037;-78
2021/03/03 06:22:27;;;;;;;37.42;20.52;;;5.30;99.90;;;;;;5048339;28;20779;-78
2021/03/03 06:24:57;;;;;;;37.75;19.95;;;5.30;99.90;;;;;;5034290;28;20044;-77
2021/03/03 06:27:24;;;;;;;34.38;18.52;;;5.30;99.90;;;;;;5035840;28;20033;-76
2021/03/03 06:30:11;;;;;;;35.03;19.40;;;5.30;99.90;;;;;;5034167;28;20490;-76
2021/03/03 06:33:05;;;;;;;38.58;19.55;;;5.30;99.90;;;;;;5034765;28;20575;-77
2021/03/03 06:35:40;;;;;;;33.75;19.25;;;5.30;99.90;;;;;;5037230;28;20128;-77
2021/03/03 06:38:14;;;;;;;37.38;20.38;;;5.20;99.90;;;;;;5035810;28;20045;-77
2021/03/03 06:40:54;;;;;;;39.47;20.88;;;5.20;99.90;;;;;;5035340;28;20068;-76
2021/03/03 06:43:24;;;;;;;44.63;21.55;;;5.20;99.90;;;;;;5040088;28;20036;-76
2021/03/03 06:45:51;;;;;;;62.90;21.90;;;5.20;99.90;;;;;;5041464;28;20104;-79
2021/03/03 06:48:37;;;;;;;47.20;20.58;;;5.20;99.90;;;;;;5042692;28;20025;-76
2021/03/03 06:51:18;;;;;;;52.05;21.05;;;5.20;99.90;;;;;;5034498;28;20067;-76
2021/03/03 06:53:44;;;;;;;52.40;21.30;;;5.10;99.90;;;;;;5046872;28;20039;-77
2021/03/03 06:56:10;;;;;;;52.25;23.08;;;5.10;99.90;;;;;;5031013;28;20040;-77
2021/03/03 06:58:35;;;;;;;45.08;19.88;;;5.10;99.90;;;;;;5032487;28;20028;-77
2021/03/03 07:01:01;;;;;;;42.33;19.00;;;5.20;99.90;;;;;;5037037;28;20033;-76
2021/03/03 07:03:31;;;;;;;45.00;21.08;;;5.30;99.90;;;;;;5031919;28;20060;-77
2021/03/03 07:05:57;;;;;;;42.17;19.98;;;5.30;99.90;;;;;;5039538;28;20032;-78
2021/03/03 07:08:23;;;;;;;40.40;20.45;;;5.40;99.90;;;;;;5037547;28;20509;-77
2021/03/03 07:10:49;;;;;;;44.65;23.88;;;5.40;99.90;;;;;;5014239;28;20075;-77
2021/03/03 07:13:15;;;;;;;39.38;22.95;;;5.30;99.90;;;;;;5035554;28;20053;-76
2021/03/03 07:15:41;;;;;;;42.40;21.10;;;5.30;99.90;;;;;;5038529;28;20067;-75
2021/03/03 07:18:34;;;;;;;44.80;21.88;;;5.40;99.90;;;;;;5040866;28;20033;-78
2021/03/03 07:21:01;;;;;;;49.85;22.83;;;5.40;99.90;;;;;;5038165;28;20041;-76
2021/03/03 07:23:47;;;;;;;46.65;22.38;;;5.50;99.90;;;;;;5040729;28;20067;-78
2021/03/03 07:26:14;;;;;;;42.53;22.05;;;5.50;99.90;;;;;;5025867;28;20063;-78
2021/03/03 07:28:41;;;;;;;47.38;23.15;;;5.50;99.90;;;;;;5036839;28;20025;-78
2021/03/03 07:31:07;;;;;;;42.55;22.45;;;5.50;99.90;;;;;;5024643;28;20043;-77
2021/03/03 07:33:33;;;;;;;44.47;23.13;;;5.50;99.90;;;;;;5044759;28;20021;-77
2021/03/03 07:36:01;;;;;;;41.08;23.55;;;5.40;99.90;;;;;;5038333;28;20037;-77
2021/03/03 07:38:36;;;;;;;40.90;22.35;;;5.60;99.90;;;;;;5042141;28;20100;-76
2021/03/03 07:41:09;;;;;;;50.55;23.13;;;5.70;99.90;;;;;;5035897;28;20102;-77
2021/03/03 07:43:36;;;;;;;50.88;24.10;;;5.70;99.90;;;;;;5035841;28;20127;-79
2021/03/03 07:46:06;;;;;;;41.50;23.63;;;5.80;99.90;;;;;;5036556;28;20045;-78
2021/03/03 07:48:34;;;;;;;37.63;22.60;;;5.80;99.90;;;;;;5038264;28;20033;-78
2021/03/03 07:51:01;;;;;;;40.03;23.27;;;5.80;99.90;;;;;;5033319;28;20037;-77
2021/03/03 07:53:26;;;;;;;41.35;23.35;;;5.90;99.90;;;;;;5041466;28;20044;-78
2021/03/03 07:55:59;;;;;;;45.38;23.85;;;5.20;99.90;;;;;;5038214;28;20028;-76
2021/03/03 07:58:27;;;;;;;45.15;23.80;;;5.90;99.90;;;;;;5040365;28;20044;-80
2021/03/03 08:00:53;;;;;;;45.33;23.60;;;5.90;99.90;;;;;;5031468;28;20057;-77
2021/03/03 08:03:42;;;;;;;50.33;24.38;;;5.90;99.90;;;;;;5038714;28;20105;-77
2021/03/03 08:06:39;;;;;;;42.67;22.80;;;6.00;99.90;;;;;;5035259;28;20029;-77
2021/03/03 08:09:13;;;;;;;45.78;23.35;;;6.10;99.90;;;;;;5027168;28;20049;-77
2021/03/03 08:11:40;;;;;;;54.85;23.85;;;6.10;99.90;;;;;;5033574;28;20187;-80
2021/03/03 08:14:35;;;;;;;44.20;23.55;;;6.20;99.90;;;;;;5036254;28;20501;-77
2021/03/03 08:17:06;;;;;;;45.92;22.13;;;6.30;99.90;;;;;;5037891;28;20033;-76
2021/03/03 08:19:50;;;;;;;44.10;23.65;;;6.50;99.90;;;;;;5039118;28;20128;-77
2021/03/03 08:22:17;;;;;;;40.70;21.90;;;;;;;;;;5039754;28;20029;-79
2021/03/03 08:24:43;;;;;;;37.58;20.23;;;;;;;;;;5037448;28;20041;-81
2021/03/03 08:27:30;;;;;;;43.28;21.92;;;6.90;99.90;;;;;;5039861;28;20032;-76
2021/03/03 08:30:15;;;;;;;38.88;21.75;;;6.90;99.90;;;;;;5037976;28;20479;-77
2021/03/03 08:32:41;;;;;;;42.80;22.50;;;6.90;99.90;;;;;;5036457;28;20414;-77
2021/03/03 08:35:09;;;;;;;42.58;22.13;;;7.00;99.90;;;;;;5056241;28;20101;-78
2021/03/03 08:37:38;;;;;;;42.95;21.83;;;7.10;99.90;;;;;;5035198;28;20557;-78
2021/03/03 08:40:25;;;;;;;45.70;21.67;;;7.30;99.80;;;;;;5035721;28;20288;-80
2021/03/03 08:42:51;;;;;;;44.00;21.60;;;7.50;99.20;;;;;;5036572;28;20740;-77
2021/03/03 08:45:17;;;;;;;43.75;19.75;;;7.70;98.30;;;;;;5034842;28;20021;-77
2021/03/03 08:47:56;;;;;;;40.63;19.92;;;7.80;97.70;;;;;;5014762;28;20124;-80
2021/03/03 08:50:31;;;;;;;45.47;20.45;;;7.90;97.50;;;;;;5033081;28;20039;-79
2021/03/03 08:53:19;;;;;;;43.15;20.30;;;7.90;97.50;;;;;;5036025;28;20099;-78
2021/03/03 08:55:45;;;;;;;45.15;21.02;;;8.00;97.60;;;;;;5032392;28;20040;-81
2021/03/03 08:58:33;;;;;;;32.55;19.63;;;8.10;97.40;;;;;;5036670;28;20041;-78
2021/03/03 09:00:59;;;;;;;43.42;18.58;;;8.20;97.10;;;;;;5035625;28;20268;-78
2021/03/03 09:03:26;;;;;;;39.78;18.20;;;8.30;96.10;;;;;;5031308;28;20173;-78
2021/03/03 09:05:55;;;;;;;33.80;17.63;;;8.40;95.70;;;;;;5025030;28;20771;-77
2021/03/03 09:08:21;;;;;;;36.58;17.35;;;8.50;95.10;;;;;;5030276;28;20028;-77
2021/03/03 09:10:48;;;;;;;32.35;17.02;;;8.70;94.80;;;;;;5016544;28;20147;-79
2021/03/03 09:13:24;;;;;;;30.98;16.77;;;8.00;94.70;;;;;;5034393;28;20067;-80
2021/03/03 09:16:07;;;;;;;36.50;16.27;;;9.00;93.40;;;;;;5015099;28;20430;-79
2021/03/03 09:18:37;;;;;;;34.85;15.23;;;5.30;92.00;;;;;;5031431;28;20516;-79
2021/03/03 09:21:10;;;;;;;46.83;17.27;;;9.30;92.40;;;;;;5032470;28;20112;-79
2021/03/03 09:23:37;;;;;;;39.63;15.45;;;;;;;;;;5028455;28;20044;-79
2021/03/03 09:26:16;;;;;;;49.50;17.92;;;9.30;92.30;;;;;;5036822;28;20127;-80
2021/03/03 09:28:42;;;;;;;37.35;18.35;;;9.50;92.30;;;;;;5032419;28;20039;-76
2021/03/03 09:31:08;;;;;;;47.20;18.20;;;9.60;91.40;;;;;;5031592;28;20043;-77
2021/03/03 09:33:35;;;;;;;43.20;15.50;;;9.80;91.60;;;;;;5038784;28;20040;-78
2021/03/03 09:36:01;;;;;;;44.25;17.75;;;9.80;90.90;;;;;;5037248;28;20772;-79
2021/03/03 09:38:30;;;;;;;42.58;16.38;;;10.00;90.50;;;;;;5033987;28;20140;-80
2021/03/03 09:40:56;;;;;;;39.70;15.82;;;10.10;90.00;;;;;;5041897;28;20029;-77
2021/03/03 09:43:22;;;;;;;37.85;15.73;;;;;;;;;;5034845;28;20040;-78
2021/03/03 09:45:54;;;;;;;31.08;14.45;;;10.40;87.60;;;;;;5029624;28;20035;-79
2021/03/03 09:50:58;;;;;;;33.55;15.30;;;10.60;85.50;;;;;;5046153;27;20360;-79
2021/03/03 09:53:24;;;;;;;32.90;14.50;;;;;;;;;;5044421;28;20091;-78
2021/03/03 09:55:49;;;;;;;32.67;15.43;;;10.70;85.40;;;;;;5025812;28;20195;-78
2021/03/03 09:58:15;;;;;;;29.73;15.07;;;;;;;;;;5027599;28;20459;-78
2021/03/03 10:00:41;;;;;;;34.70;16.10;;;11.10;84.20;;;;;;5030290;28;20397;-75
2021/03/03 10:03:16;;;;;;;34.00;14.98;;;11.30;82.10;;;;;;5031625;28;20033;-78
2021/03/03 10:05:43;;;;;;;35.55;15.60;;;11.30;81.10;;;;;;5030680;28;20037;-79
2021/03/03 10:08:10;;;;;;;28.10;16.05;;;11.30;81.00;;;;;;5035223;28;20034;-80
2021/03/03 10:10:39;;;;;;;31.38;14.93;;;11.30;81.70;;;;;;5028722;28;20507;-78
2021/03/03 10:13:05;;;;;;;29.88;15.52;;;11.40;82.20;;;;;;5035862;28;20045;-79
2021/03/03 10:15:32;;;;;;;29.30;15.40;;;11.50;82.00;;;;;;5030862;28;20029;-77
2021/03/03 10:17:59;;;;;;;35.95;15.82;;;11.70;80.20;;;;;;5021552;28;20029;-76
2021/03/03 10:20:37;;;;;;;33.17;15.32;;;11.70;80.20;;;;;;5034195;28;21826;-76
2021/03/03 10:23:12;;;;;;;30.80;14.75;;;11.90;80.40;;;;;;5046831;28;20037;-78
2021/03/03 10:25:38;;;;;;;26.27;14.10;;;12.00;78.80;;;;;;5037246;28;20033;-79
2021/03/03 10:28:07;;;;;;;25.40;13.90;;;12.20;78.20;;;;;;5035277;28;20095;-78
2021/03/03 10:30:34;;;;;;;27.42;13.48;;;12.30;75.70;;;;;;5032128;28;20036;-78
2021/03/03 10:33:00;;;;;;;32.13;14.90;;;12.40;75.60;;;;;;5015995;28;20030;-80
2021/03/03 10:35:29;;;;;;;32.25;14.55;;;12.40;74.90;;;;;;5039784;28;20065;-76
2021/03/03 10:38:09;;;;;;;29.80;14.80;;;12.50;73.80;;;;;;5036047;28;20020;-77
2021/03/03 10:40:40;;;;;;;26.67;13.98;;;12.70;73.10;;;;;;5031702;28;20045;-77
2021/03/03 10:43:20;;;;;;;30.13;14.95;;;12.70;73.40;;;;;;5034360;28;20029;-76
2021/03/03 10:45:49;;;;;;;25.35;13.73;;;12.80;72.60;;;;;;5026865;28;20048;-76
2021/03/03 10:48:28;;;;;;;26.05;13.00;;;12.90;70.10;;;;;;5028173;28;20060;-75
2021/03/03 10:50:55;;;;;;;24.70;13.60;;;13.20;69.90;;;;;;5032666;28;20052;-76
2021/03/03 10:53:21;;;;;;;29.10;14.00;;;13.30;66.80;;;;;;5064790;28;20048;-75
2021/03/03 10:55:46;;;;;;;29.35;15.20;;;13.40;66.10;;;;;;5053363;28;20041;-76
2021/03/03 10:58:14;;;;;;;23.23;12.90;;;13.30;65.80;;;;;;5030998;28;20041;-77
2021/03/03 11:00:56;;;;;;;24.90;13.32;;;13.20;63.80;;;;;;5041518;28;20037;-76
2021/03/03 11:03:22;;;;;;;25.55;13.20;;;13.20;64.40;;;;;;5038673;28;20579;-77
2021/03/03 11:05:52;;;;;;;25.55;12.15;;;13.10;64.60;;;;;;5042485;28;20041;-76
2021/03/03 11:08:18;;;;;;;27.35;12.52;;;13.30;64.20;;;;;;5037348;28;20045;-76
2021/03/03 11:10:45;;;;;;;27.90;13.40;;;13.70;62.60;;;;;;5043486;28;20045;-76
2021/03/03 11:13:11;;;;;;;28.65;13.40;;;13.70;63.20;;;;;;5035624;28;20050;-78
2021/03/03 11:15:42;;;;;;;22.98;12.98;;;13.70;62.00;;;;;;5027815;28;20073;-77
2021/03/03 11:18:09;;;;;;;24.70;12.70;;;14.00;61.30;;;;;;5039348;28;20040;-78
2021/03/03 11:20:35;;;;;;;22.92;12.73;;;14.10;59.90;;;;;;5043280;28;20033;-79
2021/03/03 11:23:01;;;;;;;24.70;12.27;;;;;;;;;;5035966;28;20644;-77
2021/03/03 11:25:26;;;;;;;25.33;12.02;;;14.50;60.00;;;;;;5037720;28;20048;-78
2021/03/03 11:27:52;;;;;;;22.65;12.77;;;14.60;60.70;;;;;;5043755;28;20526;-77
2021/03/03 11:30:19;;;;;;;26.02;12.48;;;14.80;58.50;;;;;;5040324;28;20572;-76
2021/03/03 11:32:44;;;;;;;24.30;12.10;;;14.50;59.80;;;;;;5039652;28;20036;-78
2021/03/03 11:35:10;;;;;;;20.17;11.18;;;14.60;58.60;;;;;;5022280;28;20095;-77
2021/03/03 11:37:36;;;;;;;29.70;11.77;;;;;;;;;;5038972;28;20089;-76
2021/03/03 11:40:03;;;;;;;26.33;11.57;;;14.20;59.70;;;;;;5038073;28;20044;-75
2021/03/03 11:42:29;;;;;;;25.27;11.95;;;;;;;;;;5036999;28;20041;-77
2021/03/03 11:44:55;;;;;;;26.63;12.43;;;14.20;59.10;;;;;;5036949;28;20027;-77
2021/03/03 11:47:20;;;;;;;27.38;13.57;;;14.10;59.60;;;;;;5035907;28;20430;-77
2021/03/03 11:49:46;;;;;;;22.15;12.15;;;14.10;59.70;;;;;;5036791;28;20461;-77
2021/03/03 11:52:12;;;;;;;22.75;12.15;;;14.20;59.00;;;;;;5048175;28;20048;-76
2021/03/03 11:54:37;;;;;;;19.98;11.48;;;14.20;58.90;;;;;;5037738;28;20055;-78
2021/03/03 11:57:04;;;;;;;21.90;11.50;;;14.20;59.40;;;;;;5021553;28;20126;-77
2021/03/03 11:59:30;;;;;;;18.90;10.88;;;14.20;58.80;;;;;;5014489;28;20426;-77
2021/03/03 12:01:58;;;;;;;21.77;10.88;;;14.30;59.20;;;;;;5041825;28;20037;-77
2021/03/03 12:04:24;;;;;;;20.65;10.95;;;14.40;59.10;;;;;;5043447;28;20036;-79
2021/03/03 12:06:50;;;;;;;25.85;12.68;;;14.40;59.40;;;;;;5036521;28;20041;-78
2021/03/03 12:09:15;;;;;;;20.23;11.10;;;14.60;59.50;;;;;;5037857;28;20104;-78
2021/03/03 12:11:41;;;;;;;21.33;10.85;;;14.70;57.50;;;;;;5043426;28;20099;-77
2021/03/03 12:14:07;;;;;;;21.30;11.90;;;14.80;57.30;;;;;;5042369;28;20059;-78
2021/03/03 12:16:32;;;;;;;17.65;10.70;;;14.90;56.70;;;;;;5050877;28;20542;-77
2021/03/03 12:18:58;;;;;;;18.65;10.75;;;14.80;56.80;;;;;;5040813;28;20135;-75
2021/03/03 12:21:25;;;;;;;23.75;13.40;;;15.00;57.20;;;;;;5053787;28;20033;-77
2021/03/03 12:23:50;;;;;;;19.27;11.27;;;15.00;56.90;;;;;;5039769;28;20039;-80
2021/03/03 12:26:16;;;;;;;20.60;11.07;;;15.10;56.30;;;;;;5049369;28;20049;-80
2021/03/03 12:28:42;;;;;;;19.33;10.60;;;15.30;56.30;;;;;;5042934;28;20025;-77
2021/03/03 12:31:09;;;;;;;18.42;10.68;;;15.20;55.80;;;;;;5047035;28;20039;-79
2021/03/03 12:33:35;;;;;;;19.20;10.73;;;15.20;55.40;;;;;;5042225;28;20049;-77
2021/03/03 12:36:01;;;;;;;19.95;11.20;;;15.40;55.90;;;;;;5047702;28;20028;-77
2021/03/03 12:38:26;;;;;;;17.20;10.52;;;15.40;55.10;;;;;;5044961;28;20028;-78
2021/03/03 12:40:52;;;;;;;18.45;10.55;;;15.40;55.10;;;;;;5044772;28;20590;-79
2021/03/03 12:43:18;;;;;;;18.70;11.40;;;15.50;55.50;;;;;;5045773;28;20090;-78
2021/03/03 12:45:44;;;;;;;20.15;10.63;;;15.50;55.10;;;;;;5036983;28;20501;-77
2021/03/03 12:48:10;;;;;;;18.17;10.57;;;15.70;55.50;;;;;;5050404;28;20482;-77